createdAt,value
2022-12-12T00:00:36.173Z,0.00
2022-12-12T00:01:36.148Z,0.00
2022-12-12T00:02:36.222Z,0.00
2022-12-12T00:03:36.248Z,0.00
2022-12-12T00:04:36.122Z,0.00
2022-12-12T00:05:36.129Z,0.00
2022-12-12T00:06:36.166Z,0.00
2022-12-12T00:07:36.091Z,0.00
2022-12-12T00:08:36.078Z,0.00
2022-12-12T00:09:36.065Z,0.00
2022-12-12T00:10:36.083Z,0.00
2022-12-12T00:11:36.054Z,0.00
2022-12-12T00:12:36.034Z,0.00
2022-12-12T00:13:36.025Z,0.00
2022-12-12T00:14:36.018Z,0.00
2022-12-12T00:15:36.085Z,0.00
2022-12-12T00:16:35.998Z,0.00
2022-12-12T00:17:37.002Z,0.00
2022-12-12T00:18:36.990Z,0.00
2022-12-12T00:19:35.985Z,0.00
2022-12-12T00:20:35.962Z,0.00
2022-12-12T00:21:35.958Z,0.00
2022-12-12T00:22:35.965Z,0.00
2022-12-12T00:23:35.936Z,0.00
2022-12-12T00:24:35.921Z,0.00
2022-12-12T00:25:35.932Z,0.00
2022-12-12T00:26:41.172Z,0.00
2022-12-12T00:27:36.918Z,0.00
2022-12-12T00:28:35.907Z,0.00
2022-12-12T00:29:35.893Z,0.00
2022-12-12T00:30:35.872Z,0.00
2022-12-12T00:31:35.974Z,0.00
2022-12-12T00:32:35.872Z,0.00
2022-12-12T00:33:35.827Z,0.00
2022-12-12T00:34:36.831Z,0.00
2022-12-12T00:35:35.817Z,0.00
2022-12-12T00:36:35.817Z,0.00
2022-12-12T00:37:35.848Z,0.00
2022-12-12T00:38:35.789Z,0.00
2022-12-12T00:39:35.773Z,0.00
2022-12-12T00:40:35.772Z,0.00
2022-12-12T00:41:35.754Z,0.00
2022-12-12T00:42:35.773Z,0.00
2022-12-12T00:43:35.770Z,0.00
2022-12-12T00:44:35.735Z,0.00
2022-12-12T00:45:35.714Z,0.00
2022-12-12T00:46:35.750Z,0.00
2022-12-12T00:47:35.692Z,0.00
2022-12-12T00:48:35.717Z,0.00
2022-12-12T00:49:35.698Z,0.00
2022-12-12T00:50:35.693Z,0.00
2022-12-12T00:51:35.666Z,0.00
2022-12-12T00:52:35.649Z,0.00
2022-12-12T00:53:36.664Z,0.00
2022-12-12T00:54:35.646Z,0.00
2022-12-12T00:55:35.622Z,0.00
2022-12-12T00:56:35.618Z,0.00
2022-12-12T00:57:35.618Z,0.00
2022-12-12T00:58:35.596Z,0.00
2022-12-12T00:59:35.601Z,0.00
2022-12-12T01:00:35.576Z,0.00
2022-12-12T01:01:35.654Z,0.00
2022-12-12T01:02:35.607Z,0.00
2022-12-12T01:03:35.540Z,0.00
2022-12-12T01:04:35.562Z,0.00
2022-12-12T01:05:35.539Z,0.00
2022-12-12T01:06:35.521Z,0.00
2022-12-12T01:07:35.512Z,0.00
2022-12-12T01:08:35.502Z,0.00
2022-12-12T01:09:35.512Z,0.00
2022-12-12T01:10:35.499Z,0.00
2022-12-12T01:11:36.463Z,0.00
2022-12-12T01:12:35.467Z,0.00
2022-12-12T01:13:35.452Z,0.00
2022-12-12T01:14:35.441Z,0.00
2022-12-12T01:15:35.501Z,0.00
2022-12-12T01:16:35.520Z,0.00
2022-12-12T01:17:35.402Z,0.00
2022-12-12T01:18:35.402Z,0.00
2022-12-12T01:19:35.395Z,0.00
2022-12-12T01:20:35.399Z,0.00
2022-12-12T01:21:35.380Z,0.00
2022-12-12T01:22:35.367Z,0.00
2022-12-12T01:23:35.359Z,0.00
2022-12-12T01:24:35.357Z,0.00
2022-12-12T01:25:35.327Z,0.00
2022-12-12T01:26:35.349Z,0.00
2022-12-12T01:27:35.325Z,0.00
2022-12-12T01:28:35.301Z,0.00
2022-12-12T01:29:35.300Z,0.00
2022-12-12T01:30:35.301Z,0.00
2022-12-12T01:31:35.404Z,0.00
2022-12-12T01:32:35.285Z,0.00
2022-12-12T01:33:35.269Z,0.00
2022-12-12T01:34:35.288Z,0.00
2022-12-12T01:35:35.230Z,0.00
2022-12-12T01:36:35.226Z,0.00
2022-12-12T01:37:35.216Z,0.00
2022-12-12T01:38:35.211Z,0.00
2022-12-12T01:39:35.223Z,0.00
2022-12-12T01:40:35.210Z,0.00
2022-12-12T01:41:35.178Z,0.00
2022-12-12T01:42:35.177Z,0.00
2022-12-12T01:43:35.162Z,0.00
2022-12-12T01:44:35.148Z,0.00
2022-12-12T01:45:35.160Z,0.00
2022-12-12T01:46:35.184Z,0.00
2022-12-12T01:47:35.115Z,0.00
2022-12-12T01:48:36.107Z,0.00
2022-12-12T01:49:36.143Z,0.00
2022-12-12T01:50:35.105Z,0.00
2022-12-12T01:51:35.083Z,0.00
2022-12-12T01:52:35.084Z,0.00
2022-12-12T01:53:35.072Z,0.00
2022-12-12T01:54:35.071Z,0.00
2022-12-12T01:55:35.049Z,0.00
2022-12-12T01:56:35.043Z,0.00
2022-12-12T01:57:35.046Z,0.00
2022-12-12T01:58:35.015Z,0.00
2022-12-12T01:59:35.010Z,0.00
2022-12-12T02:00:35.037Z,0.00
2022-12-12T02:01:34.998Z,0.00
2022-12-12T02:02:35.009Z,0.00
2022-12-12T02:03:34.966Z,0.00
2022-12-12T02:04:34.964Z,0.00
2022-12-12T02:05:34.958Z,0.00
2022-12-12T02:06:34.949Z,0.00
2022-12-12T02:07:34.944Z,0.00
2022-12-12T02:08:34.938Z,0.00
2022-12-12T02:09:34.974Z,0.00
2022-12-12T02:10:34.904Z,0.00
2022-12-12T02:11:34.898Z,0.00
2022-12-12T02:12:34.885Z,0.00
2022-12-12T02:13:34.873Z,0.00
2022-12-12T02:14:34.880Z,0.00
2022-12-12T02:15:34.880Z,0.00
2022-12-12T02:16:34.895Z,0.00
2022-12-12T02:17:34.857Z,0.00
2022-12-12T02:18:34.829Z,0.00
2022-12-12T02:19:34.834Z,0.00
2022-12-12T02:20:34.812Z,0.00
2022-12-12T02:21:34.793Z,0.00
2022-12-12T02:22:34.804Z,0.00
2022-12-12T02:23:34.773Z,0.00
2022-12-12T02:24:34.773Z,0.00
2022-12-12T02:25:34.778Z,0.00
2022-12-12T02:26:34.768Z,0.00
2022-12-12T02:27:34.748Z,0.00
2022-12-12T02:28:34.731Z,0.00
2022-12-12T02:29:34.730Z,0.00
2022-12-12T02:30:34.720Z,0.00
2022-12-12T02:31:34.746Z,0.00
2022-12-12T02:32:34.700Z,0.00
2022-12-12T02:33:34.683Z,0.00
2022-12-12T02:34:34.674Z,0.00
2022-12-12T02:35:34.670Z,0.00
2022-12-12T02:36:34.653Z,0.00
2022-12-12T02:37:34.670Z,0.00
2022-12-12T02:38:34.635Z,0.00
2022-12-12T02:39:34.621Z,0.00
2022-12-12T02:40:34.604Z,0.00
2022-12-12T02:41:34.601Z,0.00
2022-12-12T02:42:34.624Z,0.00
2022-12-12T02:43:34.595Z,0.00
2022-12-12T02:44:34.589Z,0.00
2022-12-12T02:45:34.553Z,0.00
2022-12-12T02:46:34.596Z,0.00
2022-12-12T02:47:34.549Z,0.00
2022-12-12T02:48:34.547Z,0.00
2022-12-12T02:49:34.529Z,0.00
2022-12-12T02:50:34.512Z,0.00
2022-12-12T02:51:34.502Z,0.00
2022-12-12T02:52:34.495Z,0.00
2022-12-12T02:53:34.495Z,0.00
2022-12-12T02:54:34.470Z,0.00
2022-12-12T02:55:36.565Z,0.00
2022-12-12T02:56:35.464Z,0.00
2022-12-12T02:57:34.468Z,0.00
2022-12-12T02:58:34.436Z,0.00
2022-12-12T02:59:34.446Z,0.00
2022-12-12T03:00:34.466Z,0.00
2022-12-12T03:01:34.455Z,0.00
2022-12-12T03:03:06.315Z,0.00
2022-12-12T03:03:34.393Z,0.00
2022-12-12T03:04:34.402Z,0.00
2022-12-12T03:05:34.383Z,0.00
2022-12-12T03:06:39.336Z,0.00
2022-12-12T03:07:36.348Z,0.00
2022-12-12T03:08:34.338Z,0.00
2022-12-12T03:09:34.331Z,0.00
2022-12-12T03:10:34.338Z,0.00
2022-12-12T03:11:34.334Z,0.00
2022-12-12T03:12:34.304Z,0.00
2022-12-12T03:13:34.285Z,0.00
2022-12-12T03:14:35.291Z,0.00
2022-12-12T03:15:34.308Z,0.00
2022-12-12T03:16:34.328Z,0.00
2022-12-12T03:17:34.249Z,0.00
2022-12-12T03:18:34.255Z,0.00
2022-12-12T03:19:34.239Z,0.00
2022-12-12T03:20:34.258Z,0.00
2022-12-12T03:21:34.241Z,0.00
2022-12-12T03:22:34.209Z,0.00
2022-12-12T03:23:34.208Z,0.00
2022-12-12T03:24:34.195Z,0.00
2022-12-12T03:25:34.179Z,0.00
2022-12-12T03:26:34.199Z,0.00
2022-12-12T03:27:34.165Z,0.00
2022-12-12T03:28:34.147Z,0.00
2022-12-12T03:29:34.134Z,0.00
2022-12-12T03:30:34.161Z,0.00
2022-12-12T03:31:34.137Z,0.00
2022-12-12T03:32:34.107Z,0.00
2022-12-12T03:33:34.107Z,0.00
2022-12-12T03:34:34.123Z,0.00
2022-12-12T03:35:34.076Z,0.00
2022-12-12T03:36:34.082Z,0.00
2022-12-12T03:37:34.062Z,0.00
2022-12-12T03:38:34.096Z,0.00
2022-12-12T03:39:34.067Z,0.00
2022-12-12T03:40:34.031Z,0.00
2022-12-12T03:41:34.038Z,0.00
2022-12-12T03:42:34.009Z,0.00
2022-12-12T03:43:34.033Z,0.00
2022-12-12T03:44:39.776Z,0.00
2022-12-12T03:45:35.050Z,0.00
2022-12-12T03:46:34.077Z,0.00
2022-12-12T03:47:33.976Z,0.00
2022-12-12T03:48:33.954Z,0.00
2022-12-12T03:49:33.971Z,0.00
2022-12-12T03:50:33.937Z,0.00
2022-12-12T03:51:33.935Z,0.00
2022-12-12T03:52:33.949Z,0.00
2022-12-12T03:53:33.913Z,0.00
2022-12-12T03:54:33.892Z,0.00
2022-12-12T03:55:33.915Z,0.00
2022-12-12T03:56:33.916Z,0.00
2022-12-12T03:57:33.874Z,0.00
2022-12-12T03:58:33.859Z,0.00
2022-12-12T03:59:33.875Z,0.00
2022-12-12T04:00:33.849Z,0.00
2022-12-12T04:01:33.902Z,0.00
2022-12-12T04:02:33.879Z,0.00
2022-12-12T04:03:33.843Z,0.00
2022-12-12T04:04:33.806Z,0.00
2022-12-12T04:05:33.793Z,0.00
2022-12-12T04:06:33.789Z,0.00
2022-12-12T04:07:33.774Z,0.00
2022-12-12T04:08:33.794Z,0.00
2022-12-12T04:09:33.799Z,0.00
2022-12-12T04:10:33.755Z,0.00
2022-12-12T04:11:33.743Z,0.00
2022-12-12T04:12:33.731Z,0.00
2022-12-12T04:13:33.721Z,0.00
2022-12-12T04:14:33.740Z,0.00
2022-12-12T04:15:33.695Z,0.00
2022-12-12T04:16:33.719Z,0.00
2022-12-12T04:17:33.680Z,0.00
2022-12-12T04:18:33.679Z,0.00
2022-12-12T04:19:33.708Z,0.00
2022-12-12T04:20:33.686Z,0.00
2022-12-12T04:21:33.643Z,0.00
2022-12-12T04:22:33.637Z,0.00
2022-12-12T04:23:33.666Z,0.00
2022-12-12T04:24:33.614Z,0.00
2022-12-12T04:25:33.663Z,0.00
2022-12-12T04:26:33.604Z,0.00
2022-12-12T04:27:33.600Z,0.00
2022-12-12T04:28:33.578Z,0.00
2022-12-12T04:29:33.578Z,0.00
2022-12-12T04:30:33.559Z,0.00
2022-12-12T04:31:33.601Z,0.00
2022-12-12T04:32:33.532Z,0.00
2022-12-12T04:33:33.523Z,0.00
2022-12-12T04:34:33.526Z,0.00
2022-12-12T04:35:33.509Z,0.00
2022-12-12T04:36:33.521Z,0.00
2022-12-12T04:37:33.490Z,0.00
2022-12-12T04:38:33.478Z,0.00
2022-12-12T04:39:33.476Z,0.00
2022-12-12T04:40:33.491Z,0.00
2022-12-12T04:41:33.455Z,0.00
2022-12-12T04:42:33.448Z,0.00
2022-12-12T04:43:33.434Z,0.00
2022-12-12T04:44:33.426Z,0.00
2022-12-12T04:45:33.486Z,0.00
2022-12-12T04:46:33.402Z,0.00
2022-12-12T04:47:33.383Z,0.00
2022-12-12T04:48:37.918Z,0.00
2022-12-12T04:49:34.431Z,0.00
2022-12-12T04:50:33.390Z,0.00
2022-12-12T04:51:33.369Z,0.00
2022-12-12T04:52:33.350Z,0.00
2022-12-12T04:53:33.357Z,0.00
2022-12-12T04:54:33.343Z,0.00
2022-12-12T04:55:33.314Z,0.00
2022-12-12T04:56:33.314Z,0.00
2022-12-12T04:57:33.294Z,0.00
2022-12-12T04:58:33.307Z,0.00
2022-12-12T04:59:33.281Z,0.00
2022-12-12T05:00:33.260Z,0.00
2022-12-12T05:01:33.309Z,0.00
2022-12-12T05:02:33.276Z,0.00
2022-12-12T05:03:33.238Z,0.00
2022-12-12T05:04:33.255Z,0.00
2022-12-12T05:05:33.226Z,0.00
2022-12-12T05:06:33.223Z,0.00
2022-12-12T05:07:39.278Z,0.00
2022-12-12T05:08:35.176Z,0.00
2022-12-12T05:09:33.188Z,0.00
2022-12-12T05:10:33.169Z,0.00
2022-12-12T05:11:33.151Z,0.00
2022-12-12T05:12:33.168Z,0.00
2022-12-12T05:13:33.142Z,0.00
2022-12-12T05:14:33.123Z,0.00
2022-12-12T05:15:33.121Z,0.00
2022-12-12T05:16:33.214Z,0.00
2022-12-12T05:17:33.121Z,0.00
2022-12-12T05:18:33.087Z,0.00
2022-12-12T05:19:33.110Z,0.00
2022-12-12T05:20:33.086Z,0.00
2022-12-12T05:21:33.066Z,0.00
2022-12-12T05:22:33.092Z,0.00
2022-12-12T05:23:34.815Z,0.00
2022-12-12T05:24:34.029Z,0.00
2022-12-12T05:25:33.020Z,0.00
2022-12-12T05:26:33.019Z,0.00
2022-12-12T05:27:33.041Z,0.00
2022-12-12T05:28:32.987Z,0.00
2022-12-12T05:29:32.979Z,0.00
2022-12-12T05:30:33.007Z,0.00
2022-12-12T05:31:32.967Z,0.00
2022-12-12T05:32:32.963Z,0.00
2022-12-12T05:33:32.971Z,0.00
2022-12-12T05:34:32.944Z,0.00
2022-12-12T05:35:32.920Z,0.00
2022-12-12T05:36:32.912Z,0.00
2022-12-12T05:37:32.912Z,0.00
2022-12-12T05:38:32.920Z,0.00
2022-12-12T05:39:32.910Z,0.00
2022-12-12T05:40:32.895Z,0.00
2022-12-12T05:41:32.900Z,0.00
2022-12-12T05:42:32.862Z,0.00
2022-12-12T05:43:32.852Z,0.00
2022-12-12T05:44:32.899Z,0.00
2022-12-12T05:45:32.831Z,0.00
2022-12-12T05:46:32.848Z,0.00
2022-12-12T05:47:32.815Z,0.00
2022-12-12T05:48:32.805Z,0.00
2022-12-12T05:49:32.802Z,0.00
2022-12-12T05:50:32.793Z,0.00
2022-12-12T05:51:32.809Z,0.00
2022-12-12T05:52:32.759Z,0.00
2022-12-12T05:53:41.996Z,0.00
2022-12-12T05:54:33.743Z,0.00
2022-12-12T05:55:32.732Z,0.00
2022-12-12T05:56:32.745Z,0.00
2022-12-12T05:57:32.715Z,0.00
2022-12-12T05:58:32.703Z,0.00
2022-12-12T05:59:32.707Z,0.00
2022-12-12T06:00:32.702Z,0.00
2022-12-12T06:01:32.721Z,0.00
2022-12-12T06:02:32.691Z,0.00
2022-12-12T06:03:32.667Z,0.00
2022-12-12T06:04:32.668Z,0.00
2022-12-12T06:05:32.640Z,0.00
2022-12-12T06:06:32.639Z,0.00
2022-12-12T06:07:32.616Z,0.00
2022-12-12T06:08:32.664Z,0.00
2022-12-12T06:09:32.645Z,0.00
2022-12-12T06:10:32.585Z,0.00
2022-12-12T06:11:32.581Z,0.00
2022-12-12T06:12:32.568Z,0.00
2022-12-12T06:13:32.567Z,0.00
2022-12-12T06:14:32.571Z,0.00
2022-12-12T06:15:32.597Z,0.00
2022-12-12T06:16:32.542Z,0.00
2022-12-12T06:17:33.584Z,0.00
2022-12-12T06:18:33.519Z,0.00
2022-12-12T06:19:32.504Z,0.00
2022-12-12T06:20:32.522Z,0.00
2022-12-12T06:21:32.491Z,0.00
2022-12-12T06:22:32.486Z,0.00
2022-12-12T06:23:32.469Z,0.00
2022-12-12T06:24:32.464Z,0.00
2022-12-12T06:25:32.464Z,0.00
2022-12-12T06:26:33.445Z,0.00
2022-12-12T06:27:32.430Z,0.00
2022-12-12T06:28:32.431Z,0.00
2022-12-12T06:29:32.422Z,4.00
2022-12-12T06:30:32.421Z,0.00
2022-12-12T06:31:32.614Z,4.00
2022-12-12T06:32:32.413Z,0.00
2022-12-12T06:33:32.379Z,0.00
2022-12-12T06:34:32.377Z,0.00
2022-12-12T06:35:32.370Z,4.00
2022-12-12T06:36:32.352Z,0.00
2022-12-12T06:37:33.364Z,4.00
2022-12-12T06:38:32.328Z,4.00
2022-12-12T06:39:32.319Z,4.00
2022-12-12T06:40:32.315Z,4.00
2022-12-12T06:41:32.297Z,8.00
2022-12-12T06:42:32.322Z,8.00
2022-12-12T06:43:32.280Z,8.00
2022-12-12T06:44:32.262Z,12.00
2022-12-12T06:45:32.267Z,12.00
2022-12-12T06:46:32.324Z,12.00
2022-12-12T06:47:32.250Z,16.00
2022-12-12T06:48:32.252Z,20.00
2022-12-12T06:49:32.262Z,24.00
2022-12-12T06:50:32.225Z,28.00
2022-12-12T06:51:32.214Z,28.00
2022-12-12T06:52:32.203Z,36.00
2022-12-12T06:53:32.181Z,40.00
2022-12-12T06:54:32.205Z,48.00
2022-12-12T06:55:32.169Z,56.00
2022-12-12T06:56:32.159Z,68.00
2022-12-12T06:57:32.155Z,76.00
2022-12-12T06:58:32.150Z,88.00
2022-12-12T06:59:32.139Z,100.00
2022-12-12T07:00:32.141Z,104.00
2022-12-12T07:01:32.129Z,120.00
2022-12-12T07:02:32.184Z,136.00
2022-12-12T07:03:32.090Z,148.00
2022-12-12T07:04:32.097Z,168.00
2022-12-12T07:05:32.094Z,188.00
2022-12-12T07:06:32.059Z,204.00
2022-12-12T07:07:32.048Z,228.00
2022-12-12T07:08:32.029Z,248.00
2022-12-12T07:09:32.031Z,272.00
2022-12-12T07:10:32.041Z,296.00
2022-12-12T07:11:32.013Z,316.00
2022-12-12T07:12:31.997Z,344.00
2022-12-12T07:13:31.990Z,372.00
2022-12-12T07:14:31.991Z,396.00
2022-12-12T07:15:32.048Z,424.00
2022-12-12T07:16:31.966Z,444.00
2022-12-12T07:17:31.981Z,460.00
2022-12-12T07:18:31.937Z,468.00
2022-12-12T07:19:31.937Z,472.00
2022-12-12T07:20:31.957Z,492.00
2022-12-12T07:21:31.911Z,508.00
2022-12-12T07:22:31.914Z,520.00
2022-12-12T07:23:31.894Z,540.00
2022-12-12T07:24:31.885Z,556.00
2022-12-12T07:25:31.873Z,596.00
2022-12-12T07:26:31.912Z,640.00
2022-12-12T07:27:31.855Z,652.00
2022-12-12T07:28:31.836Z,676.00
2022-12-12T07:29:31.881Z,676.00
2022-12-12T07:30:31.832Z,660.00
2022-12-12T07:31:31.865Z,660.00
2022-12-12T07:32:31.813Z,676.00
2022-12-12T07:33:42.652Z,716.00
2022-12-12T07:34:33.801Z,752.00
2022-12-12T07:35:31.784Z,788.00
2022-12-12T07:36:31.768Z,828.00
2022-12-12T07:37:31.782Z,864.00
2022-12-12T07:38:31.745Z,892.00
2022-12-12T07:39:31.790Z,896.00
2022-12-12T07:40:31.746Z,912.00
2022-12-12T07:41:31.781Z,948.00
2022-12-12T07:42:31.716Z,996.00
2022-12-12T07:43:33.193Z,1044.00
2022-12-12T07:44:32.704Z,1084.00
2022-12-12T07:45:31.694Z,1108.00
2022-12-12T07:46:31.731Z,1136.00
2022-12-12T07:47:31.684Z,1176.00
2022-12-12T07:48:31.725Z,1212.00
2022-12-12T07:49:31.675Z,1260.00
2022-12-12T07:50:31.657Z,1332.00
2022-12-12T07:51:31.626Z,1388.00
2022-12-12T07:52:31.638Z,1452.00
2022-12-12T07:53:31.640Z,1564.00
2022-12-12T07:54:31.619Z,1604.00
2022-12-12T07:55:31.602Z,1688.00
2022-12-12T07:56:31.585Z,1736.00
2022-12-12T07:57:31.573Z,1808.00
2022-12-12T07:58:31.571Z,1828.00
2022-12-12T07:59:31.578Z,1876.00
2022-12-12T08:00:31.570Z,1940.00
2022-12-12T08:01:31.651Z,2036.00
2022-12-12T08:02:31.531Z,2068.00
2022-12-12T08:03:31.515Z,2084.00
2022-12-12T08:04:31.560Z,2128.00
2022-12-12T08:05:32.518Z,2180.00
2022-12-12T08:06:31.498Z,2180.00
2022-12-12T08:07:31.482Z,2228.00
2022-12-12T08:08:31.541Z,2284.00
2022-12-12T08:09:31.480Z,2284.00
2022-12-12T08:10:31.458Z,2216.00
2022-12-12T08:11:31.524Z,2160.00
2022-12-12T08:12:31.483Z,2124.00
2022-12-12T08:13:31.429Z,2208.00
2022-12-12T08:14:31.420Z,2296.00
2022-12-12T08:15:31.404Z,2396.00
2022-12-12T08:16:31.441Z,2532.00
2022-12-12T08:17:31.415Z,2664.00
2022-12-12T08:18:31.386Z,2752.00
2022-12-12T08:19:31.379Z,2832.00
2022-12-12T08:20:31.363Z,2852.00
2022-12-12T08:21:31.357Z,2972.00
2022-12-12T08:22:31.379Z,3032.00
2022-12-12T08:23:31.341Z,3116.00
2022-12-12T08:24:31.342Z,3248.00
2022-12-12T08:25:31.322Z,3328.00
2022-12-12T08:26:31.315Z,3396.00
2022-12-12T08:27:31.328Z,3404.00
2022-12-12T08:28:31.306Z,3328.00
2022-12-12T08:29:31.289Z,3232.00
2022-12-12T08:30:31.289Z,3188.00
2022-12-12T08:31:31.291Z,3228.00
2022-12-12T08:32:31.268Z,3324.00
2022-12-12T08:33:31.223Z,3412.00
2022-12-12T08:34:31.234Z,3452.00
2022-12-12T08:35:31.242Z,3500.00
2022-12-12T08:36:31.255Z,3536.00
2022-12-12T08:37:31.199Z,3556.00
2022-12-12T08:38:31.199Z,3608.00
2022-12-12T08:39:31.171Z,3704.00
2022-12-12T08:40:31.242Z,3856.00
2022-12-12T08:41:31.162Z,4072.00
2022-12-12T08:42:31.152Z,4272.00
2022-12-12T08:43:31.147Z,4340.00
2022-12-12T08:44:31.140Z,4324.00
2022-12-12T08:45:31.129Z,4280.00
2022-12-12T08:46:31.179Z,4316.00
2022-12-12T08:47:31.119Z,4432.00
2022-12-12T08:48:31.106Z,4664.00
2022-12-12T08:49:31.093Z,4840.00
2022-12-12T08:50:31.089Z,4948.00
2022-12-12T08:51:31.117Z,4984.00
2022-12-12T08:52:31.074Z,4968.00
2022-12-12T08:53:31.057Z,4824.00
2022-12-12T08:54:31.056Z,4824.00
2022-12-12T08:55:31.037Z,5024.00
2022-12-12T08:56:31.031Z,5428.00
2022-12-12T08:57:31.008Z,5548.00
2022-12-12T08:58:30.993Z,5704.00
2022-12-12T08:59:31.028Z,5860.00
2022-12-12T09:00:30.988Z,6240.00
2022-12-12T09:01:31.041Z,6864.00
2022-12-12T09:02:31.030Z,7440.00
2022-12-12T09:04:02.870Z,7476.00
2022-12-12T09:04:30.978Z,6948.00
2022-12-12T09:05:30.956Z,6756.00
2022-12-12T09:06:30.931Z,6416.00
2022-12-12T09:07:30.931Z,6700.00
2022-12-12T09:08:31.018Z,7308.00
2022-12-12T09:09:30.933Z,7376.00
2022-12-12T09:10:30.997Z,7304.00
2022-12-12T09:11:30.880Z,8268.00
2022-12-12T09:12:30.873Z,8632.00
2022-12-12T09:13:30.870Z,8408.00
2022-12-12T09:14:30.892Z,7452.00
2022-12-12T09:15:30.866Z,7068.00
2022-12-12T09:16:30.944Z,6936.00
2022-12-12T09:17:30.823Z,6700.00
2022-12-12T09:18:30.923Z,6588.00
2022-12-12T09:19:30.814Z,6508.00
2022-12-12T09:20:30.807Z,6464.00
2022-12-12T09:21:30.785Z,6272.00
2022-12-12T09:22:30.779Z,5956.00
2022-12-12T09:23:30.779Z,5652.00
2022-12-12T09:24:30.744Z,5436.00
2022-12-12T09:25:30.739Z,5216.00
2022-12-12T09:26:30.746Z,4908.00
2022-12-12T09:27:30.739Z,4648.00
2022-12-12T09:28:30.711Z,4500.00
2022-12-12T09:29:30.715Z,4380.00
2022-12-12T09:30:30.699Z,4288.00
2022-12-12T09:31:30.764Z,4152.00
2022-12-12T09:32:30.708Z,4148.00
2022-12-12T09:33:30.687Z,4292.00
2022-12-12T09:34:30.671Z,4484.00
2022-12-12T09:35:30.663Z,4632.00
2022-12-12T09:36:30.628Z,4652.00
2022-12-12T09:37:30.628Z,4728.00
2022-12-12T09:38:30.659Z,4996.00
2022-12-12T09:39:30.615Z,5476.00
2022-12-12T09:40:30.616Z,5892.00
2022-12-12T09:41:30.609Z,6128.00
2022-12-12T09:42:30.568Z,6272.00
2022-12-12T09:43:30.573Z,6332.00
2022-12-12T09:44:30.579Z,6480.00
2022-12-12T09:45:30.582Z,6488.00
2022-12-12T09:46:30.532Z,6256.00
2022-12-12T09:47:30.517Z,6156.00
2022-12-12T09:48:30.510Z,6116.00
2022-12-12T09:49:30.562Z,6152.00
2022-12-12T09:50:30.519Z,6052.00
2022-12-12T09:51:30.481Z,5896.00
2022-12-12T09:52:31.331Z,5932.00
2022-12-12T09:53:31.467Z,5804.00
2022-12-12T09:54:30.553Z,5612.00
2022-12-12T09:55:30.633Z,5324.00
2022-12-12T09:56:30.438Z,5032.00
2022-12-12T09:57:30.424Z,4936.00
2022-12-12T09:58:30.483Z,4880.00
2022-12-12T09:59:30.410Z,4940.00
2022-12-12T10:00:30.456Z,5288.00
2022-12-12T10:01:30.509Z,5696.00
2022-12-12T10:02:30.433Z,6060.00
2022-12-12T10:03:30.463Z,6428.00
2022-12-12T10:04:30.422Z,6732.00
2022-12-12T10:05:30.500Z,6620.00
2022-12-12T10:06:38.225Z,6428.00
2022-12-12T10:07:32.416Z,5984.00
2022-12-12T10:08:30.377Z,5488.00
2022-12-12T10:09:30.327Z,5256.00
2022-12-12T10:10:30.310Z,5124.00
2022-12-12T10:11:30.309Z,5080.00
2022-12-12T10:12:30.334Z,5024.00
2022-12-12T10:13:30.275Z,5128.00
2022-12-12T10:14:30.268Z,5128.00
2022-12-12T10:15:30.265Z,5232.00
2022-12-12T10:16:30.321Z,5100.00
2022-12-12T10:17:30.235Z,5000.00
2022-12-12T10:18:30.221Z,5068.00
2022-12-12T10:19:30.224Z,5104.00
2022-12-12T10:20:30.304Z,5036.00
2022-12-12T10:21:30.225Z,4892.00
2022-12-12T10:22:30.248Z,4752.00
2022-12-12T10:23:30.215Z,4660.00
2022-12-12T10:24:30.301Z,4572.00
2022-12-12T10:25:30.179Z,4668.00
2022-12-12T10:26:30.163Z,4764.00
2022-12-12T10:27:30.256Z,4856.00
2022-12-12T10:28:30.149Z,4908.00
2022-12-12T10:29:30.115Z,5160.00
2022-12-12T10:30:30.217Z,5208.00
2022-12-12T10:31:31.204Z,5216.00
2022-12-12T10:32:30.099Z,5248.00
2022-12-12T10:33:30.121Z,5148.00
2022-12-12T10:34:30.067Z,5144.00
2022-12-12T10:35:30.576Z,5284.00
2022-12-12T10:36:30.143Z,5116.00
2022-12-12T10:37:30.041Z,5084.00
2022-12-12T10:38:30.028Z,4896.00
2022-12-12T10:39:30.114Z,4792.00
2022-12-12T10:40:30.037Z,4660.00
2022-12-12T10:41:30.005Z,4632.00
2022-12-12T10:42:30.117Z,4688.00
2022-12-12T10:43:29.977Z,4752.00
2022-12-12T10:44:29.975Z,4904.00
2022-12-12T10:45:30.133Z,5108.00
2022-12-12T10:46:30.084Z,5276.00
2022-12-12T10:47:29.948Z,5540.00
2022-12-12T10:48:29.968Z,5636.00
2022-12-12T10:49:29.927Z,5508.00
2022-12-12T10:50:29.925Z,5464.00
2022-12-12T10:51:29.929Z,5348.00
2022-12-12T10:52:29.974Z,5200.00
2022-12-12T10:53:29.891Z,5156.00
2022-12-12T10:54:29.875Z,5064.00
2022-12-12T10:55:30.943Z,5072.00
2022-12-12T10:56:29.881Z,5156.00
2022-12-12T10:57:30.860Z,5236.00
2022-12-12T10:58:29.986Z,5012.00
2022-12-12T10:59:29.844Z,4796.00
2022-12-12T11:00:29.823Z,4848.00
2022-12-12T11:02:00.650Z,4804.00
2022-12-12T11:02:31.926Z,4792.00
2022-12-12T11:03:29.958Z,5020.00
2022-12-12T11:04:29.906Z,5348.00
2022-12-12T11:05:29.812Z,5336.00
2022-12-12T11:06:29.771Z,5284.00
2022-12-12T11:07:29.783Z,5208.00
2022-12-12T11:08:29.800Z,5124.00
2022-12-12T11:09:29.838Z,4808.00
2022-12-12T11:10:33.928Z,4860.00
2022-12-12T11:11:29.716Z,4932.00
2022-12-12T11:12:29.762Z,4856.00
2022-12-12T11:13:29.708Z,4844.00
2022-12-12T11:14:29.713Z,4980.00
2022-12-12T11:15:29.687Z,5148.00
2022-12-12T11:16:29.769Z,5248.00
2022-12-12T11:17:29.684Z,5276.00
2022-12-12T11:18:29.876Z,5240.00
2022-12-12T11:19:29.744Z,5068.00
2022-12-12T11:20:29.746Z,4884.00
2022-12-12T11:21:29.682Z,4704.00
2022-12-12T11:22:29.703Z,4548.00
2022-12-12T11:23:29.646Z,4440.00
2022-12-12T11:24:29.646Z,4408.00
2022-12-12T11:25:29.594Z,4300.00
2022-12-12T11:26:29.580Z,4400.00
2022-12-12T11:27:29.754Z,4348.00
2022-12-12T11:28:29.621Z,4276.00
2022-12-12T11:29:29.580Z,4136.00
2022-12-12T11:30:29.621Z,4156.00
2022-12-12T11:31:29.572Z,4164.00
2022-12-12T11:32:29.590Z,4288.00
2022-12-12T11:33:29.511Z,4412.00
2022-12-12T11:34:29.527Z,4484.00
2022-12-12T11:35:29.534Z,4656.00
2022-12-12T11:36:29.508Z,4752.00
2022-12-12T11:37:29.488Z,4796.00
2022-12-12T11:38:29.485Z,4784.00
2022-12-12T11:39:29.503Z,4776.00
2022-12-12T11:40:29.461Z,4716.00
2022-12-12T11:41:29.439Z,4576.00
2022-12-12T11:42:29.436Z,4516.00
2022-12-12T11:43:29.423Z,4540.00
2022-12-12T11:44:29.429Z,4404.00
2022-12-12T11:45:29.473Z,4316.00
2022-12-12T11:46:29.398Z,4268.00
2022-12-12T11:47:29.374Z,4268.00
2022-12-12T11:48:29.373Z,4292.00
2022-12-12T11:49:29.391Z,4368.00
2022-12-12T11:50:29.363Z,4344.00
2022-12-12T11:51:29.361Z,4396.00
2022-12-12T11:52:29.370Z,4516.00
2022-12-12T11:53:29.327Z,4684.00
2022-12-12T11:54:29.322Z,4824.00
2022-12-12T11:55:29.296Z,4784.00
2022-12-12T11:56:29.315Z,4752.00
2022-12-12T11:57:29.325Z,4616.00
2022-12-12T11:58:29.261Z,4596.00
2022-12-12T11:59:29.282Z,4676.00
2022-12-12T12:00:29.249Z,4676.00
2022-12-12T12:01:29.237Z,4816.00
2022-12-12T12:02:29.275Z,5032.00
2022-12-12T12:03:29.296Z,5188.00
2022-12-12T12:04:29.241Z,5200.00
2022-12-12T12:05:29.254Z,5000.00
2022-12-12T12:06:29.198Z,4764.00
2022-12-12T12:07:29.205Z,4600.00
2022-12-12T12:08:29.222Z,4520.00
2022-12-12T12:09:29.175Z,4508.00
2022-12-12T12:10:29.158Z,4508.00
2022-12-12T12:11:29.151Z,4452.00
2022-12-12T12:12:29.161Z,4360.00
2022-12-12T12:13:29.162Z,4272.00
2022-12-12T12:14:29.113Z,4272.00
2022-12-12T12:15:29.114Z,4408.00
2022-12-12T12:16:29.238Z,4484.00
2022-12-12T12:17:29.111Z,4496.00
2022-12-12T12:18:29.072Z,4608.00
2022-12-12T12:19:29.098Z,4756.00
2022-12-12T12:20:29.055Z,4688.00
2022-12-12T12:21:29.042Z,4616.00
2022-12-12T12:22:29.069Z,4508.00
2022-12-12T12:23:29.037Z,4432.00
2022-12-12T12:24:29.035Z,4432.00
2022-12-12T12:25:29.005Z,4428.00
2022-12-12T12:26:29.081Z,4628.00
2022-12-12T12:27:29.017Z,4840.00
2022-12-12T12:28:29.007Z,4956.00
2022-12-12T12:29:28.965Z,4860.00
2022-12-12T12:30:29.061Z,4692.00
2022-12-12T12:31:28.949Z,4600.00
2022-12-12T12:32:28.943Z,4788.00
2022-12-12T12:33:28.936Z,5008.00
2022-12-12T12:34:28.945Z,5288.00
2022-12-12T12:35:28.942Z,5452.00
2022-12-12T12:36:28.907Z,5576.00
2022-12-12T12:37:28.896Z,5708.00
2022-12-12T12:38:28.887Z,5880.00
2022-12-12T12:39:28.881Z,5932.00
2022-12-12T12:40:28.855Z,5780.00
2022-12-12T12:41:28.877Z,5524.00
2022-12-12T12:42:28.869Z,5240.00
2022-12-12T12:43:28.886Z,5112.00
2022-12-12T12:44:28.823Z,5184.00